Time;durP1;ratioP1;P1;durP2;ratioP2;P2;SDS_P1;SDS_P2;PMS_P1;PMS_P2;Temp;Humidity;BMP_temperature;BMP_pressure;BME280_temperature;BME280_humidity;BME280_pressure;Samples;Min_cycle;Max_cycle;Signal;HPM_P1;HPM_P2
2022/05/21 00:00:28;;;;;;;7.78;2.60;;;;;;;;;;4983989;28;20030;-87
2022/05/21 00:02:54;;;;;;;8.48;2.90;;;;;;;;;;4983642;28;20034;-87
2022/05/21 00:05:21;;;;;;;8.60;2.50;;;;;;;;;;5000109;28;20633;-87
2022/05/21 00:07:47;;;;;;;12.40;2.78;;;;;;;;;;4983687;28;20049;-88
2022/05/21 00:10:15;;;;;;;10.80;3.33;;;;;;;;;;5000070;28;20042;-86
2022/05/21 00:12:42;;;;;;;14.55;3.95;;;;;;;;;;4982526;28;20038;-86
2022/05/21 00:15:09;;;;;;;11.27;3.17;;;;;;;;;;5001010;28;20100;-86
2022/05/21 00:17:34;;;;;;;9.70;3.00;;;;;;;;;;4984677;28;20442;-87
2022/05/21 00:20:00;;;;;;;16.73;3.97;;;;;;;;;;5001740;28;20041;-86
2022/05/21 00:22:26;;;;;;;12.80;3.00;;;;;;;;;;5001309;28;20058;-87
2022/05/21 00:24:52;;;;;;;9.35;3.00;;;;;;;;;;5001422;28;20121;-87
2022/05/21 00:27:18;;;;;;;8.57;3.13;;;;;;;;;;5002132;28;20035;-87
2022/05/21 00:29:43;;;;;;;10.55;3.05;;;;;;;;;;5000817;28;20041;-86
2022/05/21 00:32:09;;;;;;;13.00;3.13;;;;;;;;;;4998757;28;20038;-87
2022/05/21 00:34:34;;;;;;;5.72;2.88;;;;;;;;;;4981710;28;20503;-85
2022/05/21 00:37:01;;;;;;;8.43;2.85;;;;;;;;;;5000274;28;20074;-86
2022/05/21 00:39:27;;;;;;;6.55;3.30;;;;;;;;;;4999726;28;20491;-86
2022/05/21 00:41:53;;;;;;;10.43;3.28;;;;;;;;;;5001292;28;20390;-85
2022/05/21 00:44:19;;;;;;;8.13;3.17;;;;;;;;;;5000462;28;20070;-87
2022/05/21 00:46:48;;;;;;;6.35;3.30;;;;;;;;;;5000173;28;20045;-86
2022/05/21 00:49:19;;;;;;;12.07;3.15;;;;;;;;;;4999851;28;20035;-86
2022/05/21 00:51:50;;;;;;;8.57;3.50;;;;;;;;;;5000568;28;20058;-87
2022/05/21 00:54:17;;;;;;;8.98;3.60;;;;;;;;;;5000003;28;20033;-86
2022/05/21 00:56:53;;;;;;;13.38;3.67;;;;;;;;;;5000732;28;20041;-87
2022/05/21 01:02:06;;;;;;;12.50;3.88;;;;;;;;;;5000982;28;20066;-87
2022/05/21 01:04:33;;;;;;;12.68;3.85;;;;;;;;;;5000227;28;20080;-86
2022/05/21 01:07:01;;;;;;;9.10;3.83;;;;;;;;;;5000763;28;20084;-87
2022/05/21 01:09:26;;;;;;;15.05;4.72;;;;;;;;;;5000909;28;20026;-86
2022/05/21 01:11:52;;;;;;;18.63;4.95;;;;;;;;;;5001055;28;20064;-86
2022/05/21 01:14:20;;;;;;;15.40;4.68;;;;;;;;;;4999639;28;20043;-86
2022/05/21 01:16:50;;;;;;;8.98;4.15;;;;;;;;;;5000464;28;20030;-88
2022/05/21 01:19:16;;;;;;;12.90;4.85;;;;;;;;;;4983708;28;20098;-87
2022/05/21 01:21:43;;;;;;;15.93;5.05;;;;;;;;;;4983683;28;20029;-87
2022/05/21 01:24:10;;;;;;;10.10;4.47;;;;;;;;;;4983056;28;20092;-86
2022/05/21 01:26:38;;;;;;;10.43;5.00;;;;;;;;;;4999770;28;20042;-87
2022/05/21 01:29:09;;;;;;;10.73;4.38;;;;;;;;;;4999655;28;20029;-87
2022/05/21 01:31:35;;;;;;;12.32;4.32;;;;;;;;;;5000132;28;20031;-85
2022/05/21 01:34:01;;;;;;;11.20;4.32;;;;;;;;;;4998881;28;20057;-85
2022/05/21 01:36:27;;;;;;;11.60;4.25;;;;;;;;;;4999150;28;20064;-86
2022/05/21 01:38:53;;;;;;;11.25;4.32;;;;;;;;;;4999527;28;20053;-86
2022/05/21 01:41:18;;;;;;;8.40;4.30;;;;;;;;;;4983612;28;20038;-87
2022/05/21 01:46:29;;;;;;;12.50;4.63;;;;;;;;;;4983069;28;20035;-87
2022/05/21 01:48:54;;;;;;;13.00;4.80;;;;;;;;;;4982750;28;20035;-87
2022/05/21 01:51:20;;;;;;;14.27;5.18;;;;;;;;;;4999833;28;20033;-86
2022/05/21 01:53:46;;;;;;;12.18;4.93;;;;;;;;;;5000144;28;20038;-87
2022/05/21 01:56:12;;;;;;;11.15;4.50;;;;;;;;;;4982158;28;20030;-87
2022/05/21 01:58:38;;;;;;;9.18;4.53;;;;;;;;;;4999039;28;20038;-87
2022/05/21 02:01:05;;;;;;;8.20;4.20;;;;;;;;;;5000111;28;20030;-87
2022/05/21 02:03:31;;;;;;;8.38;4.15;;;;;;;;;;4983846;28;20034;-87
2022/05/21 02:05:57;;;;;;;8.13;4.05;;;;;;;;;;4982903;28;20169;-87
2022/05/21 02:08:22;;;;;;;8.02;3.92;;;;;;;;;;4983175;28;20053;-86
2022/05/21 02:10:48;;;;;;;7.05;3.78;;;;;;;;;;5000550;28;20057;-86
2022/05/21 02:13:25;;;;;;;11.20;4.20;;;;;;;;;;4999647;28;20068;-86
2022/05/21 02:15:50;;;;;;;7.93;4.00;;;;;;;;;;4982134;28;20042;-86
2022/05/21 02:18:17;;;;;;;9.55;4.05;;;;;;;;;;5000082;28;20422;-88
2022/05/21 02:20:42;;;;;;;9.63;4.13;;;;;;;;;;4999326;28;20049;-87
2022/05/21 02:23:10;;;;;;;12.07;4.90;;;;;;;;;;4982825;28;20031;-87
2022/05/21 02:25:36;;;;;;;10.57;4.13;;;;;;;;;;5000006;28;20038;-86
2022/05/21 02:28:03;;;;;;;11.85;4.85;;;;;;;;;;4983275;28;20034;-86
2022/05/21 02:30:28;;;;;;;16.98;4.97;;;;;;;;;;5003030;28;20038;-86
2022/05/21 02:32:54;;;;;;;7.55;4.00;;;;;;;;;;5003124;28;20072;-86
2022/05/21 02:35:19;;;;;;;7.03;4.30;;;;;;;;;;5002217;28;20491;-86
2022/05/21 02:40:30;;;;;;;10.60;4.63;;;;;;;;;;5003180;28;20096;-87
2022/05/21 02:42:56;;;;;;;10.10;4.10;;;;;;;;;;5002826;28;20030;-87
2022/05/21 02:45:25;;;;;;;9.73;4.22;;;;;;;;;;5003330;28;20031;-87
2022/05/21 02:47:52;;;;;;;9.30;4.10;;;;;;;;;;4970744;28;20038;-87
2022/05/21 02:50:23;;;;;;;7.70;4.15;;;;;;;;;;5003643;28;20389;-86
2022/05/21 02:52:49;;;;;;;8.90;4.57;;;;;;;;;;4970383;28;20026;-86
2022/05/21 02:55:15;;;;;;;7.63;4.18;;;;;;;;;;5003287;28;20034;-87
2022/05/21 02:57:42;;;;;;;7.97;3.90;;;;;;;;;;5002199;28;20034;-86
2022/05/21 03:00:12;;;;;;;6.93;3.75;;;;;;;;;;4985178;28;20113;-87
2022/05/21 03:02:37;;;;;;;13.48;3.90;;;;;;;;;;5003504;28;20042;-86
2022/05/21 03:05:04;;;;;;;8.00;3.90;;;;;;;;;;5002156;28;20029;-87
2022/05/21 03:07:30;;;;;;;10.00;4.38;;;;;;;;;;4984394;28;20034;-87
2022/05/21 03:12:40;;;;;;;11.00;4.25;;;;;;;;;;5001371;28;20035;-87
2022/05/21 03:15:06;;;;;;;9.35;3.88;;;;;;;;;;5002480;28;20054;-88
2022/05/21 03:17:32;;;;;;;7.95;3.85;;;;;;;;;;5003193;28;20384;-87
2022/05/21 03:19:57;;;;;;;6.90;3.50;;;;;;;;;;5002354;28;20497;-87
2022/05/21 03:22:23;;;;;;;5.65;3.42;;;;;;;;;;5002781;28;20034;-87
2022/05/21 03:24:48;;;;;;;5.50;3.42;;;;;;;;;;5002676;28;20081;-88
2022/05/21 03:27:14;;;;;;;7.03;3.67;;;;;;;;;;5002240;28;20030;-86
2022/05/21 03:29:39;;;;;;;8.73;3.15;;;;;;;;;;5002866;28;20027;-88
2022/05/21 03:32:07;;;;;;;6.43;2.90;;;;;;;;;;4968149;28;20046;-87
2022/05/21 03:34:32;;;;;;;5.18;2.78;;;;;;;;;;5001464;28;20069;-87
2022/05/21 03:36:59;;;;;;;7.05;3.08;;;;;;;;;;4982838;28;20041;-86
2022/05/21 03:39:25;;;;;;;4.65;2.75;;;;;;;;;;5001010;28;20034;-87
2022/05/21 03:41:50;;;;;;;4.25;2.97;;;;;;;;;;5000551;28;20092;-87
2022/05/21 03:44:18;;;;;;;6.65;3.10;;;;;;;;;;5002251;28;20033;-87
2022/05/21 03:46:43;;;;;;;5.63;3.13;;;;;;;;;;5001612;28;20034;-87
2022/05/21 03:49:08;;;;;;;4.35;2.83;;;;;;;;;;4999359;28;20056;-87
2022/05/21 03:51:34;;;;;;;6.57;2.88;;;;;;;;;;4983589;28;20118;-86
2022/05/21 03:54:00;;;;;;;7.07;3.03;;;;;;;;;;5000559;28;20446;-85
2022/05/21 03:56:26;;;;;;;7.43;3.00;;;;;;;;;;5000321;28;20398;-87
2022/05/21 03:58:51;;;;;;;4.25;2.70;;;;;;;;;;5001016;28;20037;-86
2022/05/21 04:01:17;;;;;;;4.88;2.80;;;;;;;;;;5001489;28;20085;-87
2022/05/21 04:03:42;;;;;;;6.53;2.90;;;;;;;;;;5001054;28;20407;-86
2022/05/21 04:06:08;;;;;;;4.20;2.63;;;;;;;;;;5000944;28;20026;-86
2022/05/21 04:08:34;;;;;;;4.70;2.90;;;;;;;;;;5000999;28;20037;-87
2022/05/21 04:11:01;;;;;;;5.82;3.20;;;;;;;;;;4983087;28;20039;-86
2022/05/21 04:13:27;;;;;;;5.38;2.85;;;;;;;;;;5000783;28;20121;-86
2022/05/21 04:15:52;;;;;;;4.32;3.00;;;;;;;;;;5000895;28;20062;-87
2022/05/21 04:18:18;;;;;;;10.13;3.10;;;;;;;;;;5001996;28;20030;-87
2022/05/21 04:20:44;;;;;;;6.28;3.33;;;;;;;;;;4984028;28;20030;-87
2022/05/21 04:23:10;;;;;;;6.20;2.53;;;;;;;;;;4984598;28;20053;-87
2022/05/21 04:25:35;;;;;;;3.75;2.83;;;;;;;;;;5000681;28;20030;-87
2022/05/21 04:28:01;;;;;;;3.33;2.28;;;;;;;;;;5001062;28;20042;-86
2022/05/21 04:30:28;;;;;;;4.05;2.53;;;;;;;;;;4984059;28;20403;-88
2022/05/21 04:32:56;;;;;;;5.47;2.80;;;;;;;;;;4984149;28;20041;-87
2022/05/21 04:35:22;;;;;;;5.90;2.85;;;;;;;;;;4983435;28;20034;-87
2022/05/21 04:37:49;;;;;;;5.03;2.60;;;;;;;;;;5001088;28;20045;-87
2022/05/21 04:40:21;;;;;;;7.00;3.08;;;;;;;;;;5001126;28;20077;-86
2022/05/21 04:42:46;;;;;;;6.60;2.80;;;;;;;;;;4983246;28;20068;-87
2022/05/21 04:45:13;;;;;;;11.75;2.80;;;;;;;;;;4982709;28;20479;-87
2022/05/21 04:47:38;;;;;;;5.85;2.55;;;;;;;;;;4999742;28;20096;-86
2022/05/21 04:50:07;;;;;;;5.03;2.80;;;;;;;;;;4999589;28;20030;-87
2022/05/21 04:52:33;;;;;;;4.32;2.70;;;;;;;;;;4981481;28;20631;-86
2022/05/21 04:55:01;;;;;;;3.92;2.60;;;;;;;;;;4998987;28;20041;-85
2022/05/21 04:57:27;;;;;;;3.17;2.25;;;;;;;;;;5000260;28;20034;-87
2022/05/21 04:59:52;;;;;;;3.78;2.17;;;;;;;;;;4999952;28;20056;-86
2022/05/21 05:02:18;;;;;;;5.35;2.40;;;;;;;;;;5000773;28;20033;-87
2022/05/21 05:04:44;;;;;;;4.15;2.20;;;;;;;;;;4999986;28;20082;-88
2022/05/21 05:07:10;;;;;;;5.07;2.20;;;;;;;;;;4983307;28;20049;-87
2022/05/21 05:09:40;;;;;;;3.95;2.00;;;;;;;;;;5000762;28;20082;-87
2022/05/21 05:12:06;;;;;;;5.05;2.20;;;;;;;;;;5001504;28;20089;-85
2022/05/21 05:14:33;;;;;;;4.32;2.40;;;;;;;;;;5002104;28;20434;-86
2022/05/21 05:16:58;;;;;;;6.95;2.20;;;;;;;;;;5000920;28;20499;-87
2022/05/21 05:19:23;;;;;;;5.90;2.40;;;;;;;;;;5001018;28;20049;-87
2022/05/21 05:21:49;;;;;;;3.13;2.40;;;;;;;;;;5000479;28;20073;-87
2022/05/21 05:24:16;;;;;;;4.22;2.40;;;;;;;;;;5000130;28;20030;-87
2022/05/21 05:26:41;;;;;;;3.47;2.22;;;;;;;;;;5000771;28;20046;-87
2022/05/21 05:29:09;;;;;;;4.72;2.30;;;;;;;;;;5000153;28;20106;-87
2022/05/21 05:31:34;;;;;;;5.80;2.40;;;;;;;;;;4984409;28;20042;-87
2022/05/21 05:34:02;;;;;;;6.00;2.50;;;;;;;;;;5000969;28;20041;-85
2022/05/21 05:36:28;;;;;;;5.35;2.33;;;;;;;;;;4984282;28;20034;-87
2022/05/21 05:38:54;;;;;;;5.20;2.40;;;;;;;;;;5000976;28;20023;-87
2022/05/21 05:41:20;;;;;;;5.00;2.33;;;;;;;;;;4984180;28;20034;-88
2022/05/21 05:43:45;;;;;;;6.28;2.30;;;;;;;;;;5000876;28;20129;-86
2022/05/21 05:46:11;;;;;;;4.18;2.20;;;;;;;;;;5000429;28;20038;-86
2022/05/21 05:48:36;;;;;;;5.75;2.28;;;;;;;;;;5002452;28;20047;-87
2022/05/21 05:51:03;;;;;;;11.98;2.30;;;;;;;;;;5003107;28;20042;-85
2022/05/21 05:53:28;;;;;;;3.65;2.40;;;;;;;;;;5002685;28;20049;-86
2022/05/21 05:55:54;;;;;;;3.97;2.10;;;;;;;;;;4983014;28;20026;-86
2022/05/21 06:01:07;;;;;;;3.38;1.98;;;;;;;;;;5002485;28;20065;-86
2022/05/21 06:03:33;;;;;;;4.22;2.00;;;;;;;;;;5003294;28;20398;-86
2022/05/21 06:06:00;;;;;;;4.88;2.20;;;;;;;;;;5008943;28;20038;-88
2022/05/21 06:08:26;;;;;;;3.60;2.13;;;;;;;;;;5006862;28;20077;-86
2022/05/21 06:10:52;;;;;;;7.53;2.25;;;;;;;;;;4990004;28;20038;-87
2022/05/21 06:13:17;;;;;;;3.03;1.85;;;;;;;;;;5005901;28;20034;-87
2022/05/21 06:15:43;;;;;;;3.55;2.20;;;;;;;;;;4987112;28;20018;-86
2022/05/21 06:18:17;;;;;;;5.07;2.60;;;;;;;;;;5006238;28;20038;-87
2022/05/21 06:20:43;;;;;;;5.78;2.30;;;;;;;;;;5005711;28;20050;-87
2022/05/21 06:23:11;;;;;;;5.68;2.15;;;;;;;;;;5002884;28;20098;-87
2022/05/21 06:25:36;;;;;;;3.05;1.90;;;;;;;;;;5004480;28;20057;-86
2022/05/21 06:28:05;;;;;;;5.35;2.25;;;;;;;;;;5005235;28;20042;-87
2022/05/21 06:30:33;;;;;;;3.90;2.20;;;;;;;;;;5005182;28;20042;-86
2022/05/21 06:33:09;;;;;;;3.65;2.30;;;;;;;;;;5005501;28;20034;-86
2022/05/21 06:35:35;;;;;;;4.18;2.25;;;;;;;;;;4985054;28;20105;-86
2022/05/21 06:38:00;;;;;;;4.38;2.20;;;;;;;;;;5001379;28;20074;-86
2022/05/21 06:40:28;;;;;;;4.72;1.98;;;;;;;;;;5001249;28;20053;-88
2022/05/21 06:42:53;;;;;;;4.85;2.22;;;;;;;;;;4981729;28;20069;-88
2022/05/21 06:45:19;;;;;;;3.28;2.20;;;;;;;;;;5000379;28;20042;-86
2022/05/21 06:47:44;;;;;;;6.47;2.20;;;;;;;;;;5002313;28;20110;-86
2022/05/21 06:50:10;;;;;;;3.83;1.80;;;;;;;;;;5001556;28;20040;-87
2022/05/21 06:52:39;;;;;;;5.35;1.92;;;;;;;;;;5000937;28;20491;-86
2022/05/21 06:55:05;;;;;;;4.63;2.13;;;;;;;;;;5000901;28;20104;-85
2022/05/21 06:57:32;;;;;;;9.73;2.50;;;;;;;;;;4982269;28;20444;-76
2022/05/21 06:59:57;;;;;;;3.45;2.20;;;;;;;;;;5000606;28;20495;-87
2022/05/21 07:02:24;;;;;;;5.68;2.40;;;;;;;;;;5003376;28;20030;-87
2022/05/21 07:07:43;;;;;;;5.10;2.20;;;;;;;;;;4986211;28;20038;-86
2022/05/21 07:10:30;;;;;;;4.55;2.70;;;;;;;;;;5002660;28;20058;-88
2022/05/21 07:12:56;;;;;;;4.22;2.60;;;;;;;;;;4982840;28;20483;-88
2022/05/21 07:15:22;;;;;;;3.22;2.10;;;;;;;;;;5000794;28;20046;-87
2022/05/21 07:17:48;;;;;;;4.47;2.20;;;;;;;;;;4983997;28;20073;-87
2022/05/21 07:20:21;;;;;;;5.63;2.30;;;;;;;;;;4984630;28;20041;-87
2022/05/21 07:22:48;;;;;;;4.13;2.35;;;;;;;;;;5002275;28;20042;-87
2022/05/21 07:25:21;;;;;;;7.72;2.45;;;;;;;;;;5000110;28;20112;-87
2022/05/21 07:27:47;;;;;;;5.32;2.28;;;;;;;;;;5000313;28;20038;-87
2022/05/21 07:30:13;;;;;;;4.30;1.90;;;;;;;;;;4999403;28;20116;-89
2022/05/21 07:32:38;;;;;;;3.40;2.40;;;;;;;;;;5001161;28;20113;-86
2022/05/21 07:35:08;;;;;;;5.03;2.22;;;;;;;;;;4999967;28;20089;-87
2022/05/21 07:37:34;;;;;;;5.93;2.30;;;;;;;;;;5000950;28;20049;-87
2022/05/21 07:39:59;;;;;;;3.70;2.33;;;;;;;;;;5001761;28;20031;-87
2022/05/21 07:42:25;;;;;;;3.28;2.30;;;;;;;;;;5001016;28;20416;-89
2022/05/21 07:44:50;;;;;;;4.05;2.50;;;;;;;;;;4998167;28;20034;-88
2022/05/21 07:47:16;;;;;;;4.68;2.33;;;;;;;;;;5000435;28;20054;-87
2022/05/21 07:49:42;;;;;;;3.88;2.10;;;;;;;;;;4999363;28;20042;-88
2022/05/21 07:52:08;;;;;;;4.82;2.13;;;;;;;;;;4999187;28;20049;-87
2022/05/21 07:54:34;;;;;;;4.53;2.13;;;;;;;;;;4999363;28;20045;-87
2022/05/21 07:57:01;;;;;;;3.28;2.08;;;;;;;;;;4998895;28;20549;-87
2022/05/21 07:59:28;;;;;;;4.28;2.20;;;;;;;;;;4999394;28;20034;-87
2022/05/21 08:01:54;;;;;;;3.80;2.13;;;;;;;;;;4999745;28;20184;-86
2022/05/21 08:04:19;;;;;;;5.63;2.20;;;;;;;;;;4999544;28;20049;-87
2022/05/21 08:06:45;;;;;;;3.45;2.20;;;;;;;;;;4999735;28;20038;-87
2022/05/21 08:09:10;;;;;;;4.32;2.40;;;;;;;;;;4997690;28;20048;-87
2022/05/21 08:11:37;;;;;;;5.22;2.30;;;;;;;;;;4982243;28;20690;-87
2022/05/21 08:14:02;;;;;;;6.07;2.40;;;;;;;;;;4981689;28;20558;-87
2022/05/21 08:16:29;;;;;;;4.65;2.67;;;;;;;;;;4998819;28;20540;-87
2022/05/21 08:18:56;;;;;;;4.35;2.40;;;;;;;;;;4981546;28;20038;-87
2022/05/21 08:21:22;;;;;;;8.35;2.70;;;;;;;;;;4999610;28;20042;-87
2022/05/21 08:29:15;;;;;;;3.72;2.28;;;;;;;;;;4997420;28;20029;-87
2022/05/21 08:31:41;;;;;;;6.15;2.50;;;;;;;;;;4981540;28;20442;-87
2022/05/21 08:34:06;;;;;;;6.03;2.78;;;;;;;;;;4997864;28;20069;-87
2022/05/21 08:36:32;;;;;;;4.22;2.75;;;;;;;;;;4999117;28;20034;-87
2022/05/21 08:38:57;;;;;;;3.95;2.60;;;;;;;;;;4981304;28;20069;-87
2022/05/21 08:41:22;;;;;;;3.85;2.22;;;;;;;;;;4998691;28;20027;-89
2022/05/21 08:44:15;;;;;;;4.13;2.40;;;;;;;;;;4998269;28;20705;-87
2022/05/21 08:46:58;;;;;;;4.43;2.30;;;;;;;;;;4981636;28;20042;-87
2022/05/21 08:49:36;;;;;;;4.00;2.05;;;;;;;;;;4998714;28;20066;-87
2022/05/21 08:52:42;;;;;;;4.18;2.00;;;;;;;;;;4964174;28;20441;-86
2022/05/21 08:55:11;;;;;;;3.92;2.08;;;;;;;;;;4999022;28;20030;-87
2022/05/21 08:57:51;;;;;;;3.63;1.90;;;;;;;;;;4997803;28;20108;-87
2022/05/21 09:00:21;;;;;;;4.70;2.00;;;;;;;;;;4980184;28;20050;-87
2022/05/21 09:02:47;;;;;;;5.40;2.15;;;;;;;;;;4980312;28;20472;-86
2022/05/21 09:05:15;;;;;;;3.13;1.80;;;;;;;;;;4981303;28;20244;-86
2022/05/21 09:07:40;;;;;;;3.03;1.88;;;;;;;;;;4999298;28;20057;-86
2022/05/21 09:10:10;;;;;;;4.53;1.58;;;;;;;;;;4998784;28;20035;-87
2022/05/21 09:12:40;;;;;;;2.70;1.65;;;;;;;;;;4980948;28;20185;-87
2022/05/21 09:15:07;;;;;;;2.58;1.50;;;;;;;;;;4982023;28;20043;-89
2022/05/21 09:17:41;;;;;;;2.85;1.60;;;;;;;;;;4983699;28;20033;-88
2022/05/21 09:20:14;;;;;;;2.53;1.60;;;;;;;;;;4999671;28;20088;-88
2022/05/21 09:22:39;;;;;;;2.00;1.40;;;;;;;;;;5000011;28;20039;-88
2022/05/21 09:25:22;;;;;;;2.80;1.73;;;;;;;;;;5000084;28;20038;-88
2022/05/21 09:28:02;;;;;;;3.25;1.60;;;;;;;;;;5000470;28;20042;-88
2022/05/21 09:30:29;;;;;;;3.17;1.60;;;;;;;;;;4982760;28;20495;-89
2022/05/21 09:33:18;;;;;;;4.85;1.70;;;;;;;;;;5000010;28;20387;-86
2022/05/21 09:35:54;;;;;;;3.40;1.60;;;;;;;;;;4982025;28;20091;-88
2022/05/21 09:38:25;;;;;;;6.10;1.80;;;;;;;;;;4999431;28;20061;-87
2022/05/21 09:41:03;;;;;;;5.07;1.75;;;;;;;;;;4966529;28;20113;-88
2022/05/21 09:46:31;;;;;;;4.63;1.70;;;;;;;;;;4999461;28;20038;-88
2022/05/21 09:49:12;;;;;;;2.53;1.60;;;;;;;;;;4982346;28;20045;-89
2022/05/21 09:51:40;;;;;;;2.70;1.60;;;;;;;;;;4999033;28;20034;-87
2022/05/21 09:54:25;;;;;;;3.40;1.60;;;;;;;;;;4998462;28;20533;-88
2022/05/21 09:56:53;;;;;;;4.25;1.80;;;;;;;;;;4996150;28;20038;-87
2022/05/21 09:59:22;;;;;;;3.13;1.65;;;;;;;;;;4996538;28;20440;-88
2022/05/21 10:01:53;;;;;;;2.58;1.70;;;;;;;;;;4996300;28;20030;-88
2022/05/21 10:04:51;;;;;;;3.33;1.60;;;;;;;;;;4996087;28;20096;-87
2022/05/21 10:13:12;;;;;;;5.55;2.10;;;;;;;;;;4996876;28;20042;-87
2022/05/21 10:15:46;;;;;;;2.97;1.88;;;;;;;;;;4996637;28;20022;-88
2022/05/21 10:18:23;;;;;;;3.00;1.85;;;;;;;;;;4997107;28;20034;-87
2022/05/21 10:20:54;;;;;;;4.03;1.85;;;;;;;;;;4980240;28;20045;-87
2022/05/21 10:23:41;;;;;;;6.47;1.80;;;;;;;;;;4996890;28;20459;-88
2022/05/21 10:26:55;;;;;;;2.70;1.88;;;;;;;;;;4995175;28;20081;-88
2022/05/21 10:29:48;;;;;;;3.17;1.90;;;;;;;;;;4987732;28;20051;-88
2022/05/21 10:32:18;;;;;;;4.03;2.10;;;;;;;;;;4976678;28;20034;-88
2022/05/21 10:35:21;;;;;;;6.05;2.20;;;;;;;;;;4994361;28;20038;-88
2022/05/21 10:38:10;;;;;;;3.55;1.90;;;;;;;;;;4993347;28;20026;-88
2022/05/21 10:40:47;;;;;;;8.18;2.30;;;;;;;;;;4977513;28;20034;-88
2022/05/21 10:43:50;;;;;;;4.78;2.00;;;;;;;;;;4995458;28;20034;-87
2022/05/21 10:46:19;;;;;;;3.85;2.20;;;;;;;;;;4994754;28;20105;-87
2022/05/21 10:48:59;;;;;;;3.28;2.28;;;;;;;;;;4994271;28;20052;-89
2022/05/21 10:51:41;;;;;;;6.30;2.00;;;;;;;;;;4996669;28;20042;-87
2022/05/21 10:54:17;;;;;;;5.07;2.47;;;;;;;;;;4998281;28;20053;-86
2022/05/21 10:57:04;;;;;;;3.22;2.20;;;;;;;;;;4998172;28;20038;-86
2022/05/21 10:59:36;;;;;;;5.35;2.33;;;;;;;;;;4998697;28;20060;-87
2022/05/21 11:02:31;;;;;;;3.95;2.25;;;;;;;;;;4997713;28;20463;-86
2022/05/21 11:05:27;;;;;;;4.95;2.20;;;;;;;;;;4976691;28;20118;-87
2022/05/21 11:07:57;;;;;;;4.25;2.00;;;;;;;;;;4998723;28;20513;-87
2022/05/21 11:10:38;;;;;;;7.85;2.53;;;;;;;;;;4998697;28;20042;-86
2022/05/21 11:13:19;;;;;;;6.53;2.40;;;;;;;;;;4998074;28;20116;-87
2022/05/21 11:15:52;;;;;;;3.45;2.30;;;;;;;;;;4998820;28;20149;-87
2022/05/21 11:18:35;;;;;;;4.15;2.70;;;;;;;;;;4998864;28;20096;-87
2022/05/21 11:21:09;;;;;;;4.97;2.38;;;;;;;;;;5000694;28;20030;-87
2022/05/21 11:23:39;;;;;;;;;;;;;;;;;;5021174;23;20047;-88
2022/05/21 11:26:34;;;;;;;4.55;2.47;;;;;;;;;;4997887;28;19917;-86
2022/05/21 11:29:37;;;;;;;3.63;2.25;;;;;;;;;;4996663;28;20095;-87
2022/05/21 11:37:51;;;;;;;6.88;2.25;;;;;;;;;;4999083;28;20514;-84
2022/05/21 11:40:51;;;;;;;3.95;2.35;;;;;;;;;;4998363;28;20034;-85
2022/05/21 11:43:18;;;;;;;3.38;2.10;;;;;;;;;;4981015;28;20510;-85
2022/05/21 11:45:59;;;;;;;3.95;2.40;;;;;;;;;;5002756;28;20033;-87
2022/05/21 11:48:28;;;;;;;5.18;2.42;;;;;;;;;;5008916;28;20030;-86
2022/05/21 11:51:17;;;;;;;4.95;2.05;;;;;;;;;;4999181;28;20046;-87
2022/05/21 11:53:44;;;;;;;3.80;2.22;;;;;;;;;;4991390;28;20077;-88
2022/05/21 11:56:12;;;;;;;4.95;2.17;;;;;;;;;;5003694;28;20030;-86
2022/05/21 11:58:50;;;;;;;4.70;2.10;;;;;;;;;;4997080;28;20110;-86
2022/05/21 12:01:38;;;;;;;5.50;2.17;;;;;;;;;;4995653;28;20037;-86
2022/05/21 12:04:05;;;;;;;4.75;2.20;;;;;;;;;;4996306;28;20045;-86
2022/05/21 12:06:41;;;;;;;4.32;2.50;;;;;;;;;;4997025;28;20031;-87
2022/05/21 12:09:26;;;;;;;3.55;2.10;;;;;;;;;;4979381;28;20042;-86
2022/05/21 12:12:11;;;;;;;5.15;2.42;;;;;;;;;;4996218;28;20035;-85
2022/05/21 12:15:09;;;;;;;3.95;2.10;;;;;;;;;;4996999;28;20064;-87
2022/05/21 12:17:43;;;;;;;5.22;2.60;;;;;;;;;;4950900;28;20578;-87
2022/05/21 12:20:11;;;;;;;3.38;2.47;;;;;;;;;;4997564;28;20030;-85
2022/05/21 12:23:03;;;;;;;4.57;2.42;;;;;;;;;;4978030;28;20038;-86
2022/05/21 12:25:41;;;;;;;4.80;2.50;;;;;;;;;;4971619;28;20046;-87
2022/05/21 12:28:08;;;;;;;3.90;2.38;;;;;;;;;;4957300;28;20510;-85
2022/05/21 12:30:35;;;;;;;5.97;2.65;;;;;;;;;;4986370;28;20065;-87
2022/05/21 12:33:00;;;;;;;4.15;2.35;;;;;;;;;;4978152;28;20039;-87
2022/05/21 12:36:06;;;;;;;3.25;2.33;;;;;;;;;;4977543;28;20061;-87
2022/05/21 12:38:36;;;;;;;3.25;2.30;;;;;;;;;;4977666;28;20101;-85
2022/05/21 12:41:16;;;;;;;3.42;2.40;;;;;;;;;;4978339;28;20113;-87
2022/05/21 12:43:47;;;;;;;5.15;2.67;;;;;;;;;;4978791;28;20404;-86
2022/05/21 12:46:26;;;;;;;4.07;2.33;;;;;;;;;;4980100;28;20454;-84
2022/05/21 12:48:53;;;;;;;4.60;2.45;;;;;;;;;;4982481;28;20038;-88
2022/05/21 12:51:40;;;;;;;3.30;2.20;;;;;;;;;;4962300;28;20039;-86
2022/05/21 12:54:24;;;;;;;4.05;2.30;;;;;;;;;;4958947;28;20039;-85
2022/05/21 12:56:51;;;;;;;5.70;2.42;;;;;;;;;;4977930;28;20027;-86
2022/05/21 12:59:19;;;;;;;7.30;2.50;;;;;;;;;;4977091;28;20041;-86
2022/05/21 13:01:56;;;;;;;6.65;2.25;;;;;;;;;;4976878;28;20040;-88
2022/05/21 13:04:29;;;;;;;3.65;2.17;;;;;;;;;;4976138;28;20039;-87
2022/05/21 13:07:15;;;;;;;6.07;2.40;;;;;;;;;;4975750;28;20046;-86
2022/05/21 13:09:57;;;;;;;4.05;2.38;;;;;;;;;;4975860;28;20049;-83
2022/05/21 13:12:24;;;;;;;4.45;2.45;;;;;;;;;;4958808;28;20121;-87
2022/05/21 13:14:51;;;;;;;5.35;2.50;;;;;;;;;;4976270;28;20493;-87
2022/05/21 13:17:54;;;;;;;4.82;2.63;;;;;;;;;;4975475;28;20039;-86
2022/05/21 13:20:38;;;;;;;4.78;2.50;;;;;;;;;;4975234;28;20045;-87
2022/05/21 13:23:15;;;;;;;4.95;2.40;;;;;;;;;;4979665;28;20043;-85
2022/05/21 13:25:41;;;;;;;6.25;2.20;;;;;;;;;;4967383;28;20526;-87
2022/05/21 13:28:17;;;;;;;4.88;2.72;;;;;;;;;;4977722;28;20085;-85
2022/05/21 13:30:51;;;;;;;6.40;2.65;;;;;;;;;;4978068;28;20039;-86
2022/05/21 13:33:34;;;;;;;4.72;2.80;;;;;;;;;;4977949;28;20045;-86
2022/05/21 13:36:02;;;;;;;;;;;;;;;;;;4942720;28;20122;-85
2022/05/21 13:38:32;;;;;;;3.92;2.60;;;;;;;;;;4985381;28;19973;-85
2022/05/21 13:40:59;;;;;;;5.63;2.60;;;;;;;;;;4960314;28;20418;-85
2022/05/21 13:43:34;;;;;;;6.22;3.03;;;;;;;;;;4965249;28;20034;-86
2022/05/21 13:46:04;;;;;;;3.45;2.30;;;;;;;;;;4976334;28;20046;-87
2022/05/21 13:48:42;;;;;;;5.57;2.67;;;;;;;;;;4976392;28;20034;-86
2022/05/21 13:51:15;;;;;;;4.45;2.53;;;;;;;;;;4958995;28;20070;-86
2022/05/21 13:53:41;;;;;;;;;;;;;;;;;;4959530;28;20125;-86
2022/05/21 13:56:32;;;;;;;4.95;2.72;;;;;;;;;;4975718;28;20370;-85
2022/05/21 13:59:16;;;;;;;4.85;2.42;;;;;;;;;;4958862;28;20030;-87
2022/05/21 14:01:49;;;;;;;9.32;2.85;;;;;;;;;;4959165;28;20039;-86
2022/05/21 14:04:39;;;;;;;7.68;2.70;;;;;;;;;;4976257;28;20034;-87
2022/05/21 14:07:21;;;;;;;4.50;2.63;;;;;;;;;;4975345;28;20078;-86
2022/05/21 14:09:48;;;;;;;5.35;2.90;;;;;;;;;;4959021;28;20027;-85
2022/05/21 14:12:28;;;;;;;6.38;3.40;;;;;;;;;;4959342;28;20034;-85
2022/05/21 14:14:58;;;;;;;5.60;2.78;;;;;;;;;;4959295;28;20034;-85
2022/05/21 14:17:36;;;;;;;4.15;2.63;;;;;;;;;;4975968;28;20042;-84
2022/05/21 14:20:29;;;;;;;5.97;2.70;;;;;;;;;;4958785;28;20039;-85
2022/05/21 14:23:17;;;;;;;4.78;2.63;;;;;;;;;;4974043;28;20419;-86
2022/05/21 14:25:42;;;;;;;4.30;2.75;;;;;;;;;;4970034;28;20104;-86
2022/05/21 14:28:14;;;;;;;7.18;3.08;;;;;;;;;;4997950;28;20467;-88
2022/05/21 14:30:42;;;;;;;6.28;2.97;;;;;;;;;;4999629;28;20121;-88
2022/05/21 14:33:17;;;;;;;8.25;2.80;;;;;;;;;;4997873;28;20034;-86
2022/05/21 14:35:43;;;;;;;3.58;2.35;;;;;;;;;;4979551;28;20483;-84
2022/05/21 14:38:09;;;;;;;7.35;2.40;;;;;;;;;;4988219;28;20057;-84
2022/05/21 14:40:49;;;;;;;4.22;2.20;;;;;;;;;;4979469;28;20038;-86
2022/05/21 14:43:30;;;;;;;3.33;2.05;;;;;;;;;;4996155;28;20034;-87
2022/05/21 14:45:56;;;;;;;3.08;1.77;;;;;;;;;;4995022;28;20070;-86
2022/05/21 14:48:21;;;;;;;3.67;1.90;;;;;;;;;;5006944;28;20384;-86
2022/05/21 14:53:38;;;;;;;3.58;2.10;;;;;;;;;;4980721;28;20458;-88
2022/05/21 14:56:07;;;;;;;6.28;2.30;;;;;;;;;;4980657;28;20422;-86
2022/05/21 14:58:32;;;;;;;3.63;2.33;;;;;;;;;;4998879;28;20031;-88
2022/05/21 15:00:57;;;;;;;3.72;2.25;;;;;;;;;;4998997;28;20415;-86
2022/05/21 15:03:23;;;;;;;3.28;2.13;;;;;;;;;;4982346;28;20030;-85
2022/05/21 15:05:50;;;;;;;2.85;2.10;;;;;;;;;;4999536;28;20034;-87
2022/05/21 15:08:19;;;;;;;4.03;2.20;;;;;;;;;;4999969;28;20048;-85
2022/05/21 15:10:45;;;;;;;6.28;2.28;;;;;;;;;;4998992;28;20031;-88
2022/05/21 15:13:11;;;;;;;3.45;2.15;;;;;;;;;;4980874;28;20061;-87
2022/05/21 15:15:36;;;;;;;4.10;2.13;;;;;;;;;;4980745;28;20537;-86
2022/05/21 15:18:02;;;;;;;4.78;2.33;;;;;;;;;;4980588;28;20030;-86
2022/05/21 15:20:28;;;;;;;3.65;2.10;;;;;;;;;;4980274;28;20033;-84
2022/05/21 15:22:54;;;;;;;6.30;2.45;;;;;;;;;;4979782;28;20040;-87
2022/05/21 15:25:22;;;;;;;3.25;2.25;;;;;;;;;;4979816;28;20068;-86
2022/05/21 15:27:50;;;;;;;5.53;2.45;;;;;;;;;;4996393;28;20053;-84
2022/05/21 15:30:18;;;;;;;6.40;2.50;;;;;;;;;;4979824;28;20092;-87
2022/05/21 15:32:46;;;;;;;3.00;2.20;;;;;;;;;;5005949;28;20100;-88
2022/05/21 15:35:12;;;;;;;7.13;2.40;;;;;;;;;;4981601;28;20042;-88
2022/05/21 15:37:39;;;;;;;4.25;2.30;;;;;;;;;;4997536;28;20109;-87
2022/05/21 15:40:05;;;;;;;6.90;2.58;;;;;;;;;;4981932;28;20042;-86
2022/05/21 15:42:31;;;;;;;4.45;2.40;;;;;;;;;;4981610;28;20132;-85